Atyrau, Kazakhstan

8:48 PM +05 on July 23, 2016 (GMT +0500)
Atyrau | | Change Station

Elev -72 ft 47.12 °N, 51.83 °E | Updated 18 minutes ago

Mostly Cloudy
Mostly Cloudy
86 °F
Feels Like 86 °F
N
9
Wind Variable Wind from NNE

Today
High -- | Low -- °F
--% Chance of Precip.
Yesterday
High -- | Low -- °F
Precip. -- in
Pressure 29.71 in
Visibility 6.2 miles
Clouds Scattered Clouds 3300 ft
Mostly Cloudy 10000 ft
Dew Point 52 °F
Humidity 31%
Rainfall 0.00 in
Snow Depth Not available.
6:01 AM 9:16 PM
Waning Gibbous, 84% visible
METAR UATG 231530Z 02004MPS 9999 SCT033CB BKN100 30/11 Q1006 R32/CLRD70 NOSIG RMK QFE756/1008
Pressure 29.71 in
Visibility 6.2 miles
Clouds Scattered Clouds 3300 ft
Mostly Cloudy 10000 ft
Dew Point 52 °F
Humidity 31%
Rainfall 0.00 in
Snow Depth Not available.
6:01 AM 9:16 PM
Waning Gibbous, 84% visible
METAR UATG 231530Z 02004MPS 9999 SCT033CB BKN100 30/11 Q1006 R32/CLRD70 NOSIG RMK QFE756/1008

10-Day Weather Forecast

×

Almanac

Astronomy

Jul. 23, 2016 Rise Set
Actual Time
Civil Twilight
Nautical Twilight
Astronomical Twilight
Moon
Length of Visible Light
Length of Day
Tomorrow will be .
, % of the Moon is Illuminated

Today's Extremes

Country Highs Country Lows

Community

WunderPhotos

Upload Photos

1,926,848 photos uploaded!

WunderBlog® & News

Nearby

Air Quality

  Air Quality AQ Index Pollutant
Not available.

Snow Depth

Station Depth Elevation

Earthquake Activity

City Distance Mag. Time & Date
Minimum magnitude displayed is 2.5.

Coastal Water Temperatures

Place Temperature

Stations

Nearby Weather Stations

Station Location Temp. Windchill Dew Point Humidity Wind Precip. Elev Updated Type